createdAt,value
2018-08-31T00:02:17.157Z,14.80
2018-08-31T00:04:50.761Z,16.60
2018-08-31T00:07:26.053Z,14.50
2018-08-31T00:10:01.723Z,16.00
2018-08-31T00:12:35.656Z,16.33
2018-08-31T00:15:03.973Z,14.63
2018-08-31T00:17:32.087Z,14.30
2018-08-31T00:20:00.184Z,15.87
2018-08-31T00:22:28.285Z,15.90
2018-08-31T00:26:01.298Z,14.00
2018-08-31T00:28:35.097Z,15.60
2018-08-31T00:31:13.520Z,15.60
2018-08-31T00:33:49.004Z,14.30
2018-08-31T00:36:22.513Z,15.07
2018-08-31T00:41:04.744Z,15.03
2018-08-31T00:44:41.245Z,16.23
2018-08-31T00:47:09.373Z,15.37
2018-08-31T00:49:37.473Z,16.97
2018-08-31T00:52:05.909Z,14.13
2018-08-31T00:54:33.958Z,15.30
2018-08-31T00:57:02.007Z,14.80
2018-08-31T00:59:30.150Z,14.37
2018-08-31T01:01:58.205Z,18.27
2018-08-31T01:04:26.289Z,12.73
2018-08-31T01:06:54.469Z,14.57
2018-08-31T01:09:22.741Z,15.27
2018-08-31T01:11:50.823Z,15.03
2018-08-31T01:14:18.912Z,14.67
2018-08-31T01:16:47.062Z,13.33
2018-08-31T01:19:15.120Z,14.33
2018-08-31T01:21:43.769Z,15.33
2018-08-31T01:24:11.820Z,15.30
2018-08-31T01:26:39.861Z,15.60
2018-08-31T01:29:07.948Z,13.00
2018-08-31T01:31:36.030Z,12.17
2018-08-31T01:34:04.084Z,13.37
2018-08-31T01:36:32.240Z,18.40
2018-08-31T01:39:00.392Z,15.63
2018-08-31T01:41:28.492Z,11.33
2018-08-31T01:43:56.915Z,11.90
2018-08-31T01:46:24.986Z,12.80
2018-08-31T01:48:53.082Z,12.37
2018-08-31T01:51:21.603Z,11.77
2018-08-31T01:53:49.657Z,12.30
2018-08-31T01:56:17.741Z,12.70
2018-08-31T01:58:45.892Z,12.57
2018-08-31T02:01:14.015Z,11.60
2018-08-31T02:03:42.189Z,11.10
2018-08-31T02:06:10.375Z,12.03
2018-08-31T02:08:43.096Z,10.50
2018-08-31T02:11:11.235Z,10.77
2018-08-31T02:13:39.421Z,9.87
2018-08-31T02:16:07.533Z,9.67
2018-08-31T02:18:35.589Z,17.53
2018-08-31T02:21:04.399Z,11.43
2018-08-31T02:23:32.718Z,11.87
2018-08-31T02:26:00.785Z,11.07
2018-08-31T02:28:28.962Z,14.63
2018-08-31T02:30:57.033Z,11.53
2018-08-31T02:33:25.096Z,10.93
2018-08-31T02:35:53.192Z,10.73
2018-08-31T02:38:21.265Z,10.80
2018-08-31T02:40:49.322Z,10.80
2018-08-31T02:43:17.406Z,10.07
2018-08-31T02:45:45.556Z,11.10
2018-08-31T02:48:13.638Z,14.13
2018-08-31T02:50:41.717Z,11.07
2018-08-31T02:53:09.902Z,12.77
2018-08-31T02:55:37.936Z,8.80
2018-08-31T02:58:06.140Z,9.93
2018-08-31T03:00:34.212Z,9.30
2018-08-31T03:03:02.383Z,8.60
2018-08-31T03:05:30.448Z,9.73
2018-08-31T03:07:58.493Z,10.07
2018-08-31T03:10:26.568Z,10.47
2018-08-31T03:12:54.732Z,14.10
2018-08-31T03:15:22.810Z,15.37
2018-08-31T03:17:50.925Z,8.97
2018-08-31T03:20:18.980Z,8.73
2018-08-31T03:22:47.029Z,11.30
2018-08-31T03:25:15.084Z,8.20
2018-08-31T03:27:43.131Z,8.00
2018-08-31T03:30:11.306Z,12.83
2018-08-31T03:32:39.370Z,9.00
2018-08-31T03:35:07.795Z,9.90
2018-08-31T03:37:35.913Z,9.47
2018-08-31T03:40:04.557Z,7.90
2018-08-31T03:42:32.666Z,11.73
2018-08-31T03:45:00.729Z,8.37
2018-08-31T03:47:28.803Z,9.40
2018-08-31T03:49:56.965Z,8.37
2018-08-31T03:52:25.053Z,9.43
2018-08-31T03:54:53.173Z,9.80
2018-08-31T03:57:21.271Z,9.47
2018-08-31T03:59:50.297Z,8.63
2018-08-31T04:02:18.404Z,9.20
2018-08-31T04:04:46.459Z,11.37
2018-08-31T04:07:14.569Z,9.50
2018-08-31T04:09:42.779Z,8.47
2018-08-31T04:12:10.939Z,8.13
2018-08-31T04:14:39.080Z,7.60
2018-08-31T04:17:07.425Z,9.37
2018-08-31T04:19:35.493Z,11.30
2018-08-31T04:22:03.586Z,10.70
2018-08-31T04:24:31.644Z,7.57
2018-08-31T04:27:00.065Z,6.90
2018-08-31T04:29:28.108Z,9.67
2018-08-31T04:31:56.272Z,7.97
2018-08-31T04:34:24.411Z,7.57
2018-08-31T04:36:52.691Z,9.40
2018-08-31T04:39:20.821Z,8.07
2018-08-31T04:41:49.000Z,7.77
2018-08-31T04:44:17.067Z,9.80
2018-08-31T04:46:45.309Z,7.77
2018-08-31T04:49:13.394Z,8.80
2018-08-31T04:51:41.469Z,9.30
2018-08-31T04:54:09.544Z,8.53
2018-08-31T04:56:37.610Z,10.77
2018-08-31T04:59:05.689Z,8.17
2018-08-31T05:01:33.953Z,8.60
2018-08-31T05:04:02.080Z,9.77
2018-08-31T05:06:30.134Z,7.70
2018-08-31T05:08:58.258Z,8.20
2018-08-31T05:11:26.324Z,12.73
2018-08-31T05:13:54.532Z,12.93
2018-08-31T05:16:22.587Z,8.57
2018-08-31T05:18:50.695Z,7.30
2018-08-31T05:21:18.802Z,8.70
2018-08-31T05:23:46.997Z,7.30
2018-08-31T05:26:15.105Z,8.33
2018-08-31T05:28:43.172Z,8.40
2018-08-31T05:31:11.264Z,8.40
2018-08-31T05:33:39.388Z,7.73
2018-08-31T05:36:07.592Z,8.37
2018-08-31T05:38:36.006Z,8.70
2018-08-31T05:41:04.444Z,8.97
2018-08-31T05:43:32.549Z,10.60
2018-08-31T05:46:00.616Z,8.57
2018-08-31T05:48:28.709Z,8.20
2018-08-31T05:50:56.803Z,9.67
2018-08-31T05:53:24.900Z,8.93
2018-08-31T05:55:53.106Z,7.67
2018-08-31T05:58:21.182Z,11.90
2018-08-31T06:00:49.276Z,9.57
2018-08-31T06:03:17.352Z,8.97
2018-08-31T06:05:45.487Z,9.87
2018-08-31T06:08:13.603Z,11.37
2018-08-31T06:10:41.731Z,7.70
2018-08-31T06:13:10.056Z,8.53
2018-08-31T06:15:38.121Z,8.87
2018-08-31T06:18:07.001Z,9.50
2018-08-31T06:20:35.077Z,9.80
2018-08-31T06:23:03.160Z,10.07
2018-08-31T06:25:31.348Z,13.03
2018-08-31T06:27:59.400Z,13.30
2018-08-31T06:30:27.485Z,10.80
2018-08-31T06:32:55.557Z,9.67
2018-08-31T06:35:23.629Z,10.90
2018-08-31T06:37:51.711Z,10.87
2018-08-31T06:40:19.777Z,10.07
2018-08-31T06:42:48.224Z,9.77
2018-08-31T06:45:16.293Z,9.87
2018-08-31T06:47:44.370Z,9.77
2018-08-31T06:50:12.452Z,13.40
2018-08-31T06:52:40.524Z,11.23
2018-08-31T06:55:08.602Z,10.60
2018-08-31T06:57:36.831Z,11.37
2018-08-31T07:00:05.505Z,13.30
2018-08-31T07:02:33.664Z,10.57
2018-08-31T07:05:01.741Z,10.63
2018-08-31T07:07:29.865Z,14.03
2018-08-31T07:09:57.948Z,11.30
2018-08-31T07:12:26.119Z,10.67
2018-08-31T07:14:54.475Z,12.00
2018-08-31T07:17:22.545Z,12.00
2018-08-31T07:19:50.687Z,13.70
2018-08-31T07:22:18.940Z,13.77
2018-08-31T07:24:47.034Z,17.00
2018-08-31T07:27:15.217Z,12.80
2018-08-31T07:29:43.389Z,13.70
2018-08-31T07:32:11.508Z,13.97
2018-08-31T07:34:39.828Z,19.53
2018-08-31T07:37:07.909Z,15.43
2018-08-31T07:39:36.096Z,12.40
2018-08-31T07:42:04.495Z,14.40
2018-08-31T07:44:32.601Z,14.40
2018-08-31T07:47:00.668Z,15.93
2018-08-31T07:49:28.843Z,28.77
2018-08-31T07:51:56.998Z,19.17
2018-08-31T07:54:25.422Z,20.67
2018-08-31T07:56:53.491Z,21.27
2018-08-31T07:59:21.566Z,19.97
2018-08-31T08:01:49.648Z,22.37
2018-08-31T08:04:17.708Z,20.97
2018-08-31T08:06:45.836Z,22.63
2018-08-31T08:09:13.912Z,20.30
2018-08-31T08:11:41.961Z,21.53
2018-08-31T08:14:10.065Z,18.23
2018-08-31T08:16:38.336Z,18.30
2018-08-31T08:19:06.457Z,19.47
2018-08-31T08:21:34.554Z,20.10
2018-08-31T08:24:02.627Z,20.60
2018-08-31T08:26:30.737Z,22.10
2018-08-31T08:28:58.828Z,21.60
2018-08-31T08:31:26.896Z,21.30
2018-08-31T08:33:54.977Z,19.77
2018-08-31T08:36:23.176Z,22.00
2018-08-31T08:38:51.286Z,18.77
2018-08-31T08:41:19.358Z,21.37
2018-08-31T08:43:47.495Z,22.90
2018-08-31T08:46:15.583Z,22.77
2018-08-31T08:48:43.831Z,24.90
2018-08-31T08:51:11.957Z,21.60
2018-08-31T08:53:40.037Z,23.97
2018-08-31T08:56:08.284Z,21.20
2018-08-31T08:58:36.457Z,24.00
2018-08-31T09:01:04.805Z,20.50
2018-08-31T09:03:32.867Z,19.73
2018-08-31T09:06:00.970Z,23.03
2018-08-31T09:08:29.923Z,23.47
2018-08-31T09:10:57.988Z,21.40
2018-08-31T09:13:26.070Z,29.40
2018-08-31T09:15:54.169Z,25.87
2018-08-31T09:18:23.878Z,20.50
2018-08-31T09:20:52.140Z,24.73
2018-08-31T09:23:20.203Z,23.70
2018-08-31T09:25:48.316Z,21.07
2018-08-31T09:28:16.396Z,21.33
2018-08-31T09:30:45.892Z,21.67
2018-08-31T09:33:15.612Z,24.67
2018-08-31T09:35:43.785Z,22.33
2018-08-31T09:38:11.867Z,28.60
2018-08-31T09:40:40.181Z,25.63
2018-08-31T09:43:08.832Z,22.37
2018-08-31T09:45:36.908Z,28.73
2018-08-31T09:48:05.502Z,25.83
2018-08-31T09:50:33.625Z,25.10
2018-08-31T09:53:01.827Z,24.87
2018-08-31T09:55:29.912Z,27.70
2018-08-31T09:57:58.473Z,28.17
2018-08-31T10:00:32.153Z,27.37
2018-08-31T10:03:06.645Z,29.50
2018-08-31T10:05:34.766Z,29.60
2018-08-31T10:08:02.859Z,32.97
2018-08-31T10:10:31.002Z,25.47
2018-08-31T10:12:59.100Z,25.50
2018-08-31T10:15:27.169Z,24.33
2018-08-31T10:17:55.232Z,27.60
2018-08-31T10:20:23.325Z,27.70
2018-08-31T10:22:51.420Z,29.13
2018-08-31T10:25:19.523Z,26.00
2018-08-31T10:27:47.597Z,26.20
2018-08-31T10:30:15.708Z,27.23
2018-08-31T10:32:43.945Z,26.97
2018-08-31T10:35:12.372Z,31.50
2018-08-31T10:37:40.515Z,28.20
2018-08-31T10:40:08.598Z,27.93
2018-08-31T10:42:37.023Z,30.00
2018-08-31T10:45:05.858Z,32.40
2018-08-31T10:47:33.985Z,31.97
2018-08-31T10:50:02.101Z,32.40
2018-08-31T10:52:30.172Z,30.50
2018-08-31T10:54:58.272Z,28.97
2018-08-31T10:57:27.152Z,25.63
2018-08-31T10:59:55.392Z,25.27
2018-08-31T11:02:23.500Z,28.77
2018-08-31T11:04:51.580Z,25.43
2018-08-31T11:07:19.711Z,30.63
2018-08-31T11:09:47.823Z,32.00
2018-08-31T11:12:15.913Z,26.70
2018-08-31T11:14:44.013Z,28.27
2018-08-31T11:17:12.113Z,30.80
2018-08-31T11:19:40.492Z,26.53
2018-08-31T11:22:08.569Z,29.07
2018-08-31T11:24:36.693Z,25.77
2018-08-31T11:27:04.760Z,27.90
2018-08-31T11:29:32.849Z,28.03
2018-08-31T11:32:00.929Z,28.80
2018-08-31T11:34:28.997Z,25.40
2018-08-31T11:36:57.116Z,31.90
2018-08-31T11:39:25.241Z,27.93
2018-08-31T11:41:53.330Z,27.03
2018-08-31T11:44:21.526Z,28.77
2018-08-31T11:46:49.896Z,26.23
2018-08-31T11:49:17.977Z,27.17
2018-08-31T11:51:46.101Z,26.27
2018-08-31T11:54:14.376Z,27.97
2018-08-31T11:56:42.456Z,29.90
2018-08-31T11:59:10.648Z,25.57
2018-08-31T12:01:38.784Z,26.83
2018-08-31T12:04:06.881Z,29.40
2018-08-31T12:06:34.948Z,33.87
2018-08-31T12:09:03.652Z,27.87
2018-08-31T12:11:31.756Z,26.97
2018-08-31T12:13:59.851Z,29.47
2018-08-31T12:16:28.148Z,27.27
2018-08-31T12:18:56.265Z,25.37
2018-08-31T12:21:24.353Z,28.50
2018-08-31T12:23:52.428Z,29.57
2018-08-31T12:26:20.529Z,26.13
2018-08-31T12:28:48.621Z,23.97
2018-08-31T12:31:16.724Z,22.97
2018-08-31T12:33:44.822Z,22.27
2018-08-31T12:36:12.917Z,23.47
2018-08-31T12:38:41.005Z,21.23
2018-08-31T12:41:09.087Z,19.30
2018-08-31T12:43:37.237Z,21.40
2018-08-31T12:46:05.501Z,18.60
2018-08-31T12:48:33.582Z,21.17
2018-08-31T12:51:01.713Z,22.50
2018-08-31T12:53:29.861Z,20.47
2018-08-31T12:55:57.918Z,22.73
2018-08-31T12:58:26.180Z,19.83
2018-08-31T13:00:54.241Z,20.97
2018-08-31T13:03:22.340Z,18.77
2018-08-31T13:05:50.623Z,20.20
2018-08-31T13:08:18.713Z,22.07
2018-08-31T13:10:46.805Z,22.30
2018-08-31T13:13:14.912Z,23.93
2018-08-31T13:15:42.997Z,22.77
2018-08-31T13:18:11.090Z,28.93
2018-08-31T13:20:39.226Z,26.07
2018-08-31T13:23:07.376Z,26.63
2018-08-31T13:25:35.797Z,29.23
2018-08-31T13:28:03.905Z,26.60
2018-08-31T13:30:31.982Z,27.53
2018-08-31T13:33:00.099Z,27.40
2018-08-31T13:35:28.237Z,28.23
2018-08-31T13:37:56.323Z,25.53
2018-08-31T13:40:24.597Z,25.20
2018-08-31T13:42:52.804Z,23.43
2018-08-31T13:45:20.924Z,24.33
2018-08-31T13:47:49.269Z,26.33
2018-08-31T13:50:17.364Z,22.73
2018-08-31T13:52:45.562Z,21.00
2018-08-31T13:55:13.763Z,19.30
2018-08-31T13:57:41.994Z,19.83
2018-08-31T14:00:10.444Z,20.03
2018-08-31T14:02:38.616Z,20.63
2018-08-31T14:05:06.724Z,21.83
2018-08-31T14:07:34.832Z,21.17
2018-08-31T14:10:03.486Z,22.07
2018-08-31T14:12:31.773Z,24.53
2018-08-31T14:14:59.840Z,23.00
2018-08-31T14:17:27.916Z,22.30
2018-08-31T14:19:56.593Z,22.93
2018-08-31T14:22:24.665Z,25.23
2018-08-31T14:24:52.741Z,26.00
2018-08-31T14:27:20.802Z,24.60
2018-08-31T14:29:49.905Z,29.47
2018-08-31T14:32:19.168Z,23.20
2018-08-31T14:34:48.214Z,23.97
2018-08-31T14:37:17.137Z,24.53
2018-08-31T14:39:45.278Z,25.40
2018-08-31T14:42:13.361Z,23.27
2018-08-31T14:44:41.417Z,23.03
2018-08-31T14:47:09.770Z,25.57
2018-08-31T14:49:38.053Z,24.83
2018-08-31T14:52:06.185Z,26.97
2018-08-31T14:54:34.384Z,26.97
2018-08-31T14:57:02.442Z,29.10
2018-08-31T14:59:30.509Z,27.73
2018-08-31T15:01:58.582Z,24.87
2018-08-31T15:04:26.663Z,25.10
2018-08-31T15:06:54.775Z,26.30
2018-08-31T15:09:22.854Z,24.30
2018-08-31T15:11:50.951Z,27.03
2018-08-31T15:14:19.024Z,21.43
2018-08-31T15:16:47.082Z,21.40
2018-08-31T15:19:15.197Z,24.03
2018-08-31T15:21:43.296Z,21.80
2018-08-31T15:24:11.371Z,21.30
2018-08-31T15:26:40.064Z,21.27
2018-08-31T15:29:08.262Z,21.83
2018-08-31T15:31:36.640Z,23.83
2018-08-31T15:34:04.862Z,22.30
2018-08-31T15:36:34.696Z,21.83
2018-08-31T15:39:02.915Z,25.00
2018-08-31T15:41:31.013Z,24.00
2018-08-31T15:43:59.167Z,20.60
2018-08-31T15:46:27.274Z,19.57
2018-08-31T15:48:55.348Z,18.63
2018-08-31T15:51:23.690Z,18.27
2018-08-31T15:53:51.840Z,22.77
2018-08-31T15:56:19.920Z,19.60
2018-08-31T15:58:48.056Z,20.47
2018-08-31T16:01:16.148Z,21.63
2018-08-31T16:03:44.712Z,22.40
2018-08-31T16:06:12.833Z,22.83
2018-08-31T16:08:40.978Z,23.63
2018-08-31T16:11:09.100Z,27.03
2018-08-31T16:13:37.168Z,22.30
2018-08-31T16:16:05.268Z,22.87
2018-08-31T16:18:33.381Z,23.40
2018-08-31T16:21:01.725Z,24.17
2018-08-31T16:23:29.966Z,24.13
2018-08-31T16:25:58.085Z,25.60
2018-08-31T16:28:26.157Z,28.43
2018-08-31T16:30:54.356Z,26.53
2018-08-31T16:33:22.442Z,28.27
2018-08-31T16:35:50.699Z,26.07
2018-08-31T16:38:18.907Z,26.43
2018-08-31T16:40:47.024Z,30.30
2018-08-31T16:43:15.181Z,28.10
2018-08-31T16:45:43.608Z,26.30
2018-08-31T16:48:11.691Z,26.37
2018-08-31T16:50:40.077Z,30.70
2018-08-31T16:53:08.273Z,27.53
2018-08-31T16:55:36.376Z,30.00
2018-08-31T16:58:04.536Z,29.17
2018-08-31T17:00:32.691Z,30.80
2018-08-31T17:03:00.811Z,26.43
2018-08-31T17:05:28.909Z,32.13
2018-08-31T17:07:56.985Z,25.07
2018-08-31T17:10:25.178Z,27.27
2018-08-31T17:12:53.276Z,28.43
2018-08-31T17:15:21.340Z,32.17
2018-08-31T17:17:49.461Z,27.37
2018-08-31T17:20:17.569Z,28.47
2018-08-31T17:22:45.670Z,27.00
2018-08-31T17:25:13.753Z,28.47
2018-08-31T17:27:47.201Z,33.67
2018-08-31T17:30:21.186Z,31.90
2018-08-31T17:32:55.186Z,31.40
2018-08-31T17:35:28.898Z,33.00
2018-08-31T17:37:59.794Z,32.73
2018-08-31T17:40:28.090Z,37.00
2018-08-31T17:42:56.964Z,28.97
2018-08-31T17:45:25.112Z,34.63
2018-08-31T17:47:53.333Z,34.20
2018-08-31T17:50:21.465Z,35.93
2018-08-31T17:52:49.556Z,29.63
2018-08-31T17:55:17.666Z,38.57
2018-08-31T17:57:45.770Z,33.67
2018-08-31T18:00:13.933Z,30.50
2018-08-31T18:02:42.083Z,31.33
2018-08-31T18:05:10.228Z,32.43
2018-08-31T18:07:38.312Z,35.40
2018-08-31T18:10:06.704Z,31.40
2018-08-31T18:12:35.320Z,27.47
2018-08-31T18:15:03.853Z,31.50
2018-08-31T18:17:32.290Z,31.40
2018-08-31T18:20:00.524Z,30.33
2018-08-31T18:22:28.833Z,27.73
2018-08-31T18:24:56.904Z,29.07
2018-08-31T18:27:24.988Z,28.90
2018-08-31T18:29:53.080Z,31.27
2018-08-31T18:32:21.252Z,28.73
2018-08-31T18:34:49.339Z,34.13
2018-08-31T18:37:17.542Z,31.00
2018-08-31T18:39:45.721Z,35.60
2018-08-31T18:42:14.009Z,27.70
2018-08-31T18:44:42.079Z,29.80
2018-08-31T18:47:10.289Z,27.53
2018-08-31T18:49:38.439Z,33.63
2018-08-31T18:52:06.624Z,42.73
2018-08-31T18:54:34.732Z,29.63
2018-08-31T18:57:02.834Z,33.47
2018-08-31T18:59:31.005Z,34.57
2018-08-31T19:01:59.081Z,33.40
2018-08-31T19:04:27.240Z,28.50
2018-08-31T19:06:55.478Z,33.50
2018-08-31T19:09:23.740Z,38.07
2018-08-31T19:11:52.012Z,36.67
2018-08-31T19:14:20.072Z,27.70
2018-08-31T19:16:48.148Z,35.67
2018-08-31T19:19:16.308Z,31.13
2018-08-31T19:21:44.487Z,35.53
2018-08-31T19:24:12.725Z,32.70
2018-08-31T19:26:40.841Z,29.73
2018-08-31T19:29:08.913Z,33.67
2018-08-31T19:31:37.395Z,34.50
2018-08-31T19:34:05.488Z,35.00
2018-08-31T19:36:35.158Z,35.17
2018-08-31T19:39:04.506Z,31.23
2018-08-31T19:41:32.605Z,33.70
2018-08-31T19:44:00.694Z,33.93
2018-08-31T19:46:28.794Z,34.73
2018-08-31T19:48:56.995Z,33.83
2018-08-31T19:51:25.138Z,34.10
2018-08-31T19:53:53.265Z,32.80
2018-08-31T19:56:21.581Z,31.93
2018-08-31T19:58:49.695Z,32.90
2018-08-31T20:01:17.805Z,28.50
2018-08-31T20:03:45.970Z,35.30
2018-08-31T20:06:14.236Z,29.33
2018-08-31T20:08:42.388Z,31.20
2018-08-31T20:11:10.454Z,30.23
2018-08-31T20:13:38.772Z,32.83
2018-08-31T20:16:07.022Z,30.23
2018-08-31T20:18:35.324Z,32.37
2018-08-31T20:21:03.395Z,33.00
2018-08-31T20:23:31.472Z,32.83
2018-08-31T20:25:59.581Z,34.13
2018-08-31T20:28:27.685Z,28.60
2018-08-31T20:30:55.852Z,35.83
2018-08-31T20:33:24.104Z,34.47
2018-08-31T20:35:52.208Z,31.27
2018-08-31T20:38:20.318Z,35.70
2018-08-31T20:40:48.484Z,35.07
2018-08-31T20:43:16.921Z,35.30
2018-08-31T20:45:45.133Z,36.07
2018-08-31T20:48:13.299Z,37.07
2018-08-31T20:50:41.397Z,38.13
2018-08-31T20:53:09.585Z,37.40
2018-08-31T20:55:37.680Z,36.10
2018-08-31T20:58:05.934Z,39.47
2018-08-31T21:00:33.974Z,33.53
2018-08-31T21:03:02.047Z,41.27
2018-08-31T21:05:30.115Z,37.73
2018-08-31T21:07:58.217Z,41.50
2018-08-31T21:10:26.325Z,31.60
2018-08-31T21:12:54.421Z,32.40
2018-08-31T21:15:22.530Z,37.57
2018-08-31T21:17:52.308Z,34.10
2018-08-31T21:20:20.430Z,33.97
2018-08-31T21:22:48.504Z,35.30
2018-08-31T21:25:17.745Z,38.97
2018-08-31T21:27:45.848Z,35.80
2018-08-31T21:30:14.016Z,41.27
2018-08-31T21:32:42.084Z,41.50
2018-08-31T21:35:10.215Z,49.80
2018-08-31T21:37:38.311Z,35.47
2018-08-31T21:40:06.781Z,37.43
2018-08-31T21:42:34.897Z,33.67
2018-08-31T21:45:03.134Z,37.83
2018-08-31T21:47:31.409Z,38.33
2018-08-31T21:49:59.517Z,39.10
2018-08-31T21:52:27.629Z,37.20
2018-08-31T21:54:58.905Z,35.60
2018-08-31T21:57:26.997Z,33.70
2018-08-31T21:59:55.065Z,36.83
2018-08-31T22:02:23.115Z,40.53
2018-08-31T22:04:51.297Z,45.07
2018-08-31T22:07:19.542Z,42.97
2018-08-31T22:09:47.876Z,38.03
2018-08-31T22:12:16.089Z,50.47
2018-08-31T22:14:44.229Z,47.97
2018-08-31T22:17:12.309Z,43.33
2018-08-31T22:19:40.472Z,44.60
2018-08-31T22:22:08.574Z,40.40
2018-08-31T22:24:36.828Z,43.97
2018-08-31T22:27:04.921Z,46.10
2018-08-31T22:29:33.204Z,46.60
2018-08-31T22:32:01.268Z,38.50
2018-08-31T22:34:29.481Z,40.20
2018-08-31T22:36:58.141Z,35.30
2018-08-31T22:39:26.209Z,33.07
2018-08-31T22:41:54.334Z,32.67
2018-08-31T22:44:22.504Z,31.13
2018-08-31T22:46:50.690Z,30.00
2018-08-31T22:49:18.776Z,29.13
2018-08-31T22:51:46.894Z,29.10
2018-08-31T22:54:14.977Z,27.90
2018-08-31T22:56:43.045Z,24.87
2018-08-31T22:59:11.225Z,27.20
2018-08-31T23:01:39.372Z,31.60
2018-08-31T23:04:07.500Z,26.67
2018-08-31T23:06:35.580Z,25.97
2018-08-31T23:09:04.772Z,26.47
2018-08-31T23:11:32.840Z,27.33
2018-08-31T23:14:01.023Z,29.77
2018-08-31T23:16:29.212Z,31.43
2018-08-31T23:18:57.280Z,38.23
2018-08-31T23:21:25.371Z,41.87
2018-08-31T23:23:53.624Z,55.70
2018-08-31T23:26:21.821Z,42.80
2018-08-31T23:28:49.889Z,43.23
2018-08-31T23:31:17.973Z,46.37
2018-08-31T23:33:46.131Z,51.37
2018-08-31T23:36:14.315Z,47.63
2018-08-31T23:38:42.493Z,50.47
2018-08-31T23:41:10.649Z,49.67
2018-08-31T23:43:38.843Z,52.10
2018-08-31T23:46:07.340Z,56.57
2018-08-31T23:48:35.416Z,53.87
2018-08-31T23:51:03.484Z,54.27
2018-08-31T23:53:31.645Z,55.67
2018-08-31T23:55:59.711Z,58.37
2018-08-31T23:58:27.794Z,58.33
